Time;durP1;ratioP1;P1;durP2;ratioP2;P2;SDS_P1;SDS_P2;PMS_P1;PMS_P2;Temp;Humidity;BMP_temperature;BMP_pressure;BME280_temperature;BME280_humidity;BME280_pressure;Samples;Min_cycle;Max_cycle;Signal;HPM_P1;HPM_P2
2024/01/05 00:01:02;;;;;;;4.55;3.03;;;;;;;;;;4978725;28;20054;-68
2024/01/05 00:03:27;;;;;;;5.18;3.00;;;;;;;;;;4979973;28;20054;-68
2024/01/05 00:05:53;;;;;;;9.40;3.35;;;;;;;;;;4979767;28;20049;-68
2024/01/05 00:08:18;;;;;;;8.50;2.80;;;;;;;;;;4980914;28;20065;-69
2024/01/05 00:10:43;;;;;;;3.35;2.47;;;;;;;;;;4978414;28;20041;-66
2024/01/05 00:13:09;;;;;;;4.40;2.30;;;;;;;;;;4977486;28;20153;-66
2024/01/05 00:15:34;;;;;;;2.47;2.13;;;;;;;;;;4980415;28;20046;-66
2024/01/05 00:17:59;;;;;;;4.93;2.33;;;;;;;;;;4979806;28;20125;-66
2024/01/05 00:20:25;;;;;;;3.63;1.90;;;;;;;;;;4979171;28;20455;-66
2024/01/05 00:22:50;;;;;;;6.68;2.60;;;;;;;;;;4979263;28;20097;-66
2024/01/05 00:25:20;;;;;;;3.72;2.20;;;;;;;;;;4992509;28;20062;-66
2024/01/05 00:27:47;;;;;;;4.22;1.90;;;;;;;;;;4979878;28;20042;-66
2024/01/05 00:30:13;;;;;;;4.82;1.92;;;;;;;;;;4978168;28;20129;-66
2024/01/05 00:32:38;;;;;;;2.00;1.73;;;;;;;;;;4977711;28;20104;-66
2024/01/05 00:35:04;;;;;;;3.13;2.33;;;;;;;;;;4978187;28;20603;-66
2024/01/05 00:37:30;;;;;;;4.57;2.05;;;;;;;;;;4977953;28;20201;-66
2024/01/05 00:39:55;;;;;;;6.47;2.25;;;;;;;;;;4979067;28;20046;-67
2024/01/05 00:42:21;;;;;;;4.72;1.70;;;;;;;;;;4978994;28;20049;-66
2024/01/05 00:44:46;;;;;;;3.33;1.70;;;;;;;;;;4979043;28;20062;-66
2024/01/05 00:47:12;;;;;;;2.42;1.70;;;;;;;;;;4977584;28;20500;-66
2024/01/05 00:49:38;;;;;;;1.60;1.50;;;;;;;;;;4977583;28;20084;-66
2024/01/05 00:52:04;;;;;;;2.65;1.70;;;;;;;;;;4978251;28;20054;-68
2024/01/05 00:54:29;;;;;;;5.30;2.00;;;;;;;;;;4980635;28;20745;-67
2024/01/05 00:56:55;;;;;;;3.03;2.08;;;;;;;;;;4979114;28;20061;-67
2024/01/05 00:59:20;;;;;;;1.77;1.67;;;;;;;;;;4978442;28;20137;-67
2024/01/05 01:01:46;;;;;;;3.65;1.98;;;;;;;;;;4977152;28;20050;-68
2024/01/05 01:04:12;;;;;;;5.22;2.25;;;;;;;;;;4978171;28;20632;-68
2024/01/05 01:06:38;;;;;;;4.43;2.35;;;;;;;;;;4977925;28;20039;-67
2024/01/05 01:09:03;;;;;;;4.13;2.05;;;;;;;;;;4978475;28;20093;-68
2024/01/05 01:11:29;;;;;;;3.08;1.80;;;;;;;;;;4978059;28;20238;-67
2024/01/05 01:13:54;;;;;;;3.08;1.90;;;;;;;;;;4978421;28;20058;-67
2024/01/05 01:16:20;;;;;;;2.00;1.85;;;;;;;;;;4975148;28;20080;-68
2024/01/05 01:18:45;;;;;;;2.72;1.90;;;;;;;;;;4976809;28;20132;-69
2024/01/05 01:21:10;;;;;;;2.10;1.77;;;;;;;;;;4975761;28;20585;-68
2024/01/05 01:23:36;;;;;;;2.85;1.88;;;;;;;;;;4976824;28;20054;-68
2024/01/05 01:26:01;;;;;;;2.80;1.77;;;;;;;;;;4976465;28;20100;-68
2024/01/05 01:28:28;;;;;;;2.35;1.70;;;;;;;;;;4976692;28;20053;-68
2024/01/05 01:30:53;;;;;;;2.63;1.65;;;;;;;;;;4978221;28;20038;-67
2024/01/05 01:33:19;;;;;;;2.35;1.80;;;;;;;;;;4977938;28;20420;-68
2024/01/05 01:35:44;;;;;;;2.33;1.90;;;;;;;;;;4978129;28;20046;-67
2024/01/05 01:38:10;;;;;;;3.00;1.67;;;;;;;;;;4977411;28;20049;-67
2024/01/05 01:40:36;;;;;;;3.35;1.80;;;;;;;;;;4993071;28;20109;-68
2024/01/05 01:43:03;;;;;;;2.58;1.58;;;;;;;;;;4977992;28;20038;-68
2024/01/05 01:45:30;;;;;;;3.67;1.90;;;;;;;;;;4960233;28;20093;-68
2024/01/05 01:47:55;;;;;;;1.70;1.60;;;;;;;;;;4976989;28;20054;-67
2024/01/05 01:50:24;;;;;;;4.60;1.55;;;;;;;;;;4978473;28;20057;-67
2024/01/05 01:52:50;;;;;;;3.28;1.80;;;;;;;;;;4975790;28;20066;-67
2024/01/05 01:55:17;;;;;;;2.45;1.67;;;;;;;;;;4976233;28;20050;-67
2024/01/05 01:57:43;;;;;;;3.40;1.20;;;;;;;;;;4977714;28;20443;-67
2024/01/05 02:00:09;;;;;;;1.67;1.45;;;;;;;;;;4974685;28;20093;-68
2024/01/05 02:02:36;;;;;;;3.17;1.67;;;;;;;;;;4977726;28;20042;-66
2024/01/05 02:05:02;;;;;;;3.13;1.55;;;;;;;;;;4976961;28;20049;-67
2024/01/05 02:07:28;;;;;;;1.45;1.10;;;;;;;;;;4976811;28;20058;-66
2024/01/05 02:09:54;;;;;;;2.75;1.65;;;;;;;;;;4977206;28;20088;-66
2024/01/05 02:12:20;;;;;;;1.30;1.20;;;;;;;;;;4976575;28;20677;-66
2024/01/05 02:14:45;;;;;;;3.17;1.55;;;;;;;;;;4978229;28;20050;-66
2024/01/05 02:17:31;;;;;;;1.35;1.25;;;;;;;;;;4974860;28;20077;-66
2024/01/05 02:19:56;;;;;;;4.05;1.58;;;;;;;;;;4977667;28;20871;-66
2024/01/05 02:22:22;;;;;;;2.25;1.40;;;;;;;;;;4975976;28;20049;-67
2024/01/05 02:24:49;;;;;;;8.85;1.67;;;;;;;;;;4976290;28;20777;-67
2024/01/05 02:27:15;;;;;;;1.88;1.50;;;;;;;;;;4975095;28;20050;-66
2024/01/05 02:29:40;;;;;;;2.83;1.48;;;;;;;;;;4975681;28;20089;-66
2024/01/05 02:32:07;;;;;;;2.05;1.55;;;;;;;;;;4975105;28;20523;-67
2024/01/05 02:34:32;;;;;;;1.92;1.73;;;;;;;;;;4976588;28;20137;-67
2024/01/05 02:36:58;;;;;;;2.55;1.60;;;;;;;;;;4977049;28;20165;-67
2024/01/05 02:39:23;;;;;;;1.88;1.40;;;;;;;;;;4974999;28;20055;-66
2024/01/05 02:41:49;;;;;;;3.55;1.85;;;;;;;;;;4976602;28;20101;-66
2024/01/05 02:44:15;;;;;;;2.35;1.45;;;;;;;;;;4990958;28;20070;-67
2024/01/05 02:46:40;;;;;;;1.60;1.50;;;;;;;;;;4977016;28;20964;-66
2024/01/05 02:49:05;;;;;;;2.50;1.48;;;;;;;;;;4976196;28;20046;-66
2024/01/05 02:51:31;;;;;;;2.58;1.42;;;;;;;;;;4976873;28;20593;-66
2024/01/05 02:53:56;;;;;;;2.05;1.40;;;;;;;;;;4978990;28;20054;-66
2024/01/05 02:56:22;;;;;;;2.38;1.50;;;;;;;;;;4980419;28;20049;-66
2024/01/05 02:58:49;;;;;;;1.75;1.50;;;;;;;;;;4981841;28;20034;-67
2024/01/05 03:01:16;;;;;;;1.73;1.30;;;;;;;;;;4979383;28;20057;-67
2024/01/05 03:03:44;;;;;;;2.35;1.35;;;;;;;;;;4981175;28;20490;-66
2024/01/05 03:06:09;;;;;;;3.45;1.60;;;;;;;;;;4980095;28;20053;-67
2024/01/05 03:08:35;;;;;;;2.35;1.35;;;;;;;;;;4979636;28;20058;-67
2024/01/05 03:11:00;;;;;;;1.77;1.30;;;;;;;;;;4980877;28;20690;-67
2024/01/05 03:13:26;;;;;;;1.85;1.48;;;;;;;;;;4979620;28;20081;-67
2024/01/05 03:15:53;;;;;;;1.60;1.50;;;;;;;;;;4980561;28;20044;-67
2024/01/05 03:18:19;;;;;;;1.85;1.25;;;;;;;;;;4979664;28;20049;-67
2024/01/05 03:20:44;;;;;;;1.60;1.30;;;;;;;;;;4980529;28;20038;-67
2024/01/05 03:23:09;;;;;;;2.45;1.38;;;;;;;;;;4979630;28;20035;-67
2024/01/05 03:25:35;;;;;;;2.28;1.35;;;;;;;;;;4979474;28;20042;-67
2024/01/05 03:28:00;;;;;;;3.97;1.48;;;;;;;;;;4979651;28;20522;-67
2024/01/05 03:30:26;;;;;;;2.03;1.50;;;;;;;;;;4993917;28;20038;-66
2024/01/05 03:32:51;;;;;;;1.70;1.60;;;;;;;;;;4980334;28;20420;-67
2024/01/05 03:35:17;;;;;;;1.60;1.45;;;;;;;;;;4979254;28;20046;-67
2024/01/05 03:37:42;;;;;;;3.45;1.75;;;;;;;;;;4979545;28;20053;-67
2024/01/05 03:40:08;;;;;;;1.20;1.10;;;;;;;;;;4979720;28;20096;-66
2024/01/05 03:42:33;;;;;;;1.27;1.17;;;;;;;;;;4980520;28;20229;-66
2024/01/05 03:44:59;;;;;;;2.17;1.42;;;;;;;;;;4978586;28;20799;-67
2024/01/05 03:47:25;;;;;;;1.45;1.35;;;;;;;;;;4979302;28;20042;-67
2024/01/05 03:49:50;;;;;;;1.50;1.30;;;;;;;;;;4979165;28;20108;-67
2024/01/05 03:52:16;;;;;;;1.30;1.20;;;;;;;;;;4979467;28;20058;-67
2024/01/05 03:54:41;;;;;;;2.10;1.80;;;;;;;;;;4980293;28;20042;-67
2024/01/05 03:57:07;;;;;;;4.53;1.58;;;;;;;;;;4979202;28;20046;-67
2024/01/05 03:59:32;;;;;;;1.85;1.70;;;;;;;;;;4978622;28;20050;-67
2024/01/05 04:01:58;;;;;;;3.80;1.73;;;;;;;;;;4979867;28;20057;-68
2024/01/05 04:04:23;;;;;;;4.28;2.35;;;;;;;;;;4979130;28;20598;-67
2024/01/05 04:06:51;;;;;;;1.65;1.38;;;;;;;;;;4961554;28;20038;-67
2024/01/05 04:09:16;;;;;;;1.48;1.30;;;;;;;;;;4978122;28;20097;-67
2024/01/05 04:11:42;;;;;;;3.00;1.70;;;;;;;;;;4978475;28;20081;-69
2024/01/05 04:14:08;;;;;;;1.60;1.50;;;;;;;;;;4979016;28;20141;-69
2024/01/05 04:16:33;;;;;;;4.05;1.80;;;;;;;;;;4978079;28;20173;-69
2024/01/05 04:18:59;;;;;;;3.50;1.95;;;;;;;;;;4979849;28;20133;-69
2024/01/05 04:21:24;;;;;;;1.92;1.55;;;;;;;;;;4976121;28;20066;-69
2024/01/05 04:23:54;;;;;;;1.90;1.52;;;;;;;;;;4979546;28;20077;-69
2024/01/05 04:26:19;;;;;;;1.98;1.40;;;;;;;;;;4978999;28;20101;-67
2024/01/05 04:28:45;;;;;;;1.92;1.48;;;;;;;;;;4961606;28;20050;-67
2024/01/05 04:31:11;;;;;;;1.50;1.35;;;;;;;;;;4977814;28;20161;-68
2024/01/05 04:33:36;;;;;;;1.88;1.30;;;;;;;;;;4978478;28;20165;-68
2024/01/05 04:36:03;;;;;;;1.60;1.50;;;;;;;;;;4978334;28;20046;-67
2024/01/05 04:38:29;;;;;;;2.22;1.63;;;;;;;;;;4977371;28;20114;-68
2024/01/05 04:40:55;;;;;;;1.75;1.35;;;;;;;;;;4978983;28;20049;-69
2024/01/05 04:43:20;;;;;;;2.22;1.80;;;;;;;;;;4977473;28;20046;-67
2024/01/05 04:45:46;;;;;;;4.07;1.40;;;;;;;;;;4977760;28;20082;-68
2024/01/05 04:48:12;;;;;;;1.67;1.55;;;;;;;;;;4961145;28;20072;-69
2024/01/05 04:50:38;;;;;;;2.28;1.70;;;;;;;;;;4974585;28;20035;-67
2024/01/05 04:53:03;;;;;;;5.35;1.98;;;;;;;;;;4977847;28;20061;-68
2024/01/05 04:55:29;;;;;;;2.08;1.55;;;;;;;;;;4975577;28;20550;-68
2024/01/05 04:57:54;;;;;;;2.92;1.88;;;;;;;;;;4977974;28;20045;-67
2024/01/05 05:00:20;;;;;;;1.73;1.48;;;;;;;;;;4976809;28;20111;-67
2024/01/05 05:02:45;;;;;;;1.70;1.45;;;;;;;;;;4978980;28;20082;-68
2024/01/05 05:05:11;;;;;;;1.40;1.30;;;;;;;;;;4975646;28;20050;-67
2024/01/05 05:07:36;;;;;;;6.53;1.50;;;;;;;;;;4978776;28;20074;-70
2024/01/05 05:10:02;;;;;;;1.70;1.60;;;;;;;;;;4976110;28;20046;-69
2024/01/05 05:12:28;;;;;;;4.55;1.73;;;;;;;;;;4976900;28;20341;-67
2024/01/05 05:14:53;;;;;;;2.50;1.27;;;;;;;;;;4978956;28;20073;-70
2024/01/05 05:17:20;;;;;;;2.95;1.42;;;;;;;;;;4976181;28;20608;-67
2024/01/05 05:19:45;;;;;;;2.50;1.70;;;;;;;;;;4978540;28;20056;-69
2024/01/05 05:22:10;;;;;;;2.72;2.38;;;;;;;;;;4978354;28;20054;-67
2024/01/05 05:24:36;;;;;;;3.35;2.17;;;;;;;;;;4979510;28;20042;-67
2024/01/05 05:27:02;;;;;;;2.78;1.65;;;;;;;;;;4977834;28;20042;-68
2024/01/05 05:29:28;;;;;;;2.65;1.65;;;;;;;;;;4981284;28;20129;-68
2024/01/05 05:31:53;;;;;;;2.17;1.77;;;;;;;;;;4981854;28;20451;-67
2024/01/05 05:34:18;;;;;;;3.13;2.15;;;;;;;;;;4980838;28;20161;-68
2024/01/05 05:36:44;;;;;;;4.13;1.88;;;;;;;;;;4976818;28;20629;-66
2024/01/05 05:39:10;;;;;;;2.15;1.95;;;;;;;;;;4976515;28;20057;-69
2024/01/05 05:41:36;;;;;;;2.05;1.80;;;;;;;;;;4975897;28;20046;-67
2024/01/05 05:44:02;;;;;;;2.67;2.47;;;;;;;;;;4991120;28;20050;-68
2024/01/05 05:46:28;;;;;;;15.93;5.20;;;;;;;;;;4976139;28;20546;-69
2024/01/05 05:48:53;;;;;;;7.35;4.22;;;;;;;;;;4976606;28;20070;-70
2024/01/05 05:51:18;;;;;;;5.45;2.75;;;;;;;;;;4975483;28;20112;-67
2024/01/05 05:53:44;;;;;;;4.55;2.47;;;;;;;;;;4961173;28;20153;-68
2024/01/05 05:56:09;;;;;;;2.33;2.05;;;;;;;;;;4977970;28;20050;-69
2024/01/05 05:58:35;;;;;;;2.55;2.20;;;;;;;;;;4976422;28;20678;-68
2024/01/05 06:01:01;;;;;;;3.97;1.88;;;;;;;;;;4977027;28;20054;-67
2024/01/05 06:03:26;;;;;;;1.98;1.75;;;;;;;;;;4976627;28;20133;-69
2024/01/05 06:05:52;;;;;;;3.50;2.17;;;;;;;;;;4977595;28;20447;-67
2024/01/05 06:08:17;;;;;;;2.65;1.38;;;;;;;;;;4976335;28;20046;-70
2024/01/05 06:10:43;;;;;;;3.08;1.98;;;;;;;;;;4974660;28;20665;-69
2024/01/05 06:13:09;;;;;;;1.70;1.48;;;;;;;;;;4976483;28;20503;-67
2024/01/05 06:15:34;;;;;;;1.38;1.25;;;;;;;;;;4974547;28;20052;-69
2024/01/05 06:18:00;;;;;;;1.75;1.60;;;;;;;;;;4976117;28;20046;-66
2024/01/05 06:20:25;;;;;;;2.88;1.60;;;;;;;;;;4977670;28;20059;-67
2024/01/05 06:22:51;;;;;;;1.83;1.70;;;;;;;;;;4976456;28;20053;-67
2024/01/05 06:25:17;;;;;;;2.33;1.75;;;;;;;;;;4974405;28;20049;-66
2024/01/05 06:27:42;;;;;;;2.38;1.50;;;;;;;;;;4977699;28;20042;-67
2024/01/05 06:30:11;;;;;;;3.58;1.75;;;;;;;;;;4981736;28;20410;-66
2024/01/05 06:32:37;;;;;;;11.23;1.65;;;;;;;;;;4996301;28;20046;-67
2024/01/05 06:35:05;;;;;;;3.08;1.88;;;;;;;;;;4979733;28;20076;-66
2024/01/05 06:37:30;;;;;;;3.47;2.15;;;;;;;;;;4962386;28;20112;-66
2024/01/05 06:39:56;;;;;;;2.03;1.80;;;;;;;;;;4980485;28;20050;-66
2024/01/05 06:42:22;;;;;;;6.05;1.80;;;;;;;;;;4979931;28;20046;-67
2024/01/05 06:44:47;;;;;;;2.88;1.90;;;;;;;;;;4980285;28;20050;-66
2024/01/05 06:47:13;;;;;;;2.28;1.88;;;;;;;;;;4977884;28;20141;-66
2024/01/05 06:49:38;;;;;;;2.38;1.73;;;;;;;;;;4979215;28;20050;-66
2024/01/05 06:52:04;;;;;;;8.38;1.80;;;;;;;;;;4978835;28;20050;-66
2024/01/05 06:54:29;;;;;;;2.80;1.90;;;;;;;;;;4975475;28;20503;-66
2024/01/05 06:56:55;;;;;;;1.98;1.65;;;;;;;;;;4976235;28;20579;-67
2024/01/05 06:59:24;;;;;;;3.92;1.30;;;;;;;;;;4974024;28;20161;-66
2024/01/05 07:01:49;;;;;;;1.85;1.45;;;;;;;;;;4975074;28;20049;-67
2024/01/05 07:04:15;;;;;;;1.98;1.65;;;;;;;;;;4976660;28;20050;-66
2024/01/05 07:06:41;;;;;;;2.17;1.65;;;;;;;;;;4973178;28;20042;-66
2024/01/05 07:09:07;;;;;;;2.90;1.92;;;;;;;;;;4976426;28;20047;-66
2024/01/05 07:11:32;;;;;;;4.63;1.80;;;;;;;;;;4977334;28;20056;-66
2024/01/05 07:13:58;;;;;;;1.67;1.58;;;;;;;;;;4961742;28;20046;-66
2024/01/05 07:16:23;;;;;;;3.10;1.40;;;;;;;;;;4978495;28;20069;-66
2024/01/05 07:18:49;;;;;;;3.25;1.75;;;;;;;;;;4977687;28;20384;-66
2024/01/05 07:21:16;;;;;;;1.73;1.40;;;;;;;;;;4976665;28;20050;-66
2024/01/05 07:23:42;;;;;;;1.83;1.48;;;;;;;;;;4977878;28;20043;-66
2024/01/05 07:26:09;;;;;;;1.92;1.60;;;;;;;;;;4979029;28;20042;-65
2024/01/05 07:28:35;;;;;;;1.80;1.70;;;;;;;;;;4977172;28;20054;-66
2024/01/05 07:31:05;;;;;;;3.83;2.20;;;;;;;;;;4978867;28;20057;-66
2024/01/05 07:33:33;;;;;;;3.42;1.92;;;;;;;;;;4975924;28;20136;-66
2024/01/05 07:36:04;;;;;;;2.58;1.60;;;;;;;;;;4976738;28;20126;-66
2024/01/05 07:38:31;;;;;;;3.42;1.90;;;;;;;;;;4959436;28;20165;-65
2024/01/05 07:40:57;;;;;;;4.28;1.90;;;;;;;;;;4976514;28;20050;-65
2024/01/05 07:43:22;;;;;;;4.03;2.30;;;;;;;;;;4976104;28;20049;-67
2024/01/05 07:45:48;;;;;;;2.22;1.80;;;;;;;;;;4977413;28;20042;-67
2024/01/05 07:48:13;;;;;;;2.15;1.55;;;;;;;;;;4977722;28;20162;-67
2024/01/05 07:50:39;;;;;;;1.70;1.60;;;;;;;;;;4975753;28;20052;-67
2024/01/05 07:53:04;;;;;;;2.45;1.80;;;;;;;;;;4977560;28;20056;-67
2024/01/05 07:55:29;;;;;;;2.42;1.60;;;;;;;;;;4973883;28;20042;-67
2024/01/05 07:57:55;;;;;;;1.85;1.48;;;;;;;;;;4976614;28;20419;-69
2024/01/05 08:00:21;;;;;;;2.40;1.80;;;;;;;;;;4975165;28;20065;-67
2024/01/05 08:02:49;;;;;;;1.30;1.20;;;;;;;;;;4974459;28;20054;-69
2024/01/05 08:05:14;;;;;;;4.05;1.45;;;;;;;;;;4976301;28;20522;-64
2024/01/05 08:07:41;;;;;;;2.72;1.73;;;;;;;;;;4975701;28;20054;-69
2024/01/05 08:10:07;;;;;;;3.15;1.58;;;;;;;;;;4975798;28;20141;-68
2024/01/05 08:12:32;;;;;;;2.20;1.60;;;;;;;;;;4976165;28;20181;-70
2024/01/05 08:14:58;;;;;;;1.90;1.67;;;;;;;;;;4977355;28;20151;-68
2024/01/05 08:17:23;;;;;;;3.47;1.88;;;;;;;;;;4976638;28;20453;-69
2024/01/05 08:19:49;;;;;;;2.47;1.85;;;;;;;;;;4976691;28;20050;-69
2024/01/05 08:22:15;;;;;;;1.38;0.90;;;;;;;;;;4977585;28;20506;-68
2024/01/05 08:24:41;;;;;;;2.28;1.13;;;;;;;;;;4975320;28;20054;-69
2024/01/05 08:27:06;;;;;;;3.78;1.17;;;;;;;;;;4977808;28;20100;-69
2024/01/05 08:29:34;;;;;;;2.20;1.40;;;;;;;;;;4975772;28;20055;-69
2024/01/05 08:32:02;;;;;;;2.35;1.40;;;;;;;;;;4977277;28;20042;-69
2024/01/05 08:34:28;;;;;;;3.05;1.45;;;;;;;;;;4975280;28;20050;-70
2024/01/05 08:36:54;;;;;;;1.20;1.10;;;;;;;;;;4975760;28;20042;-69
2024/01/05 08:39:19;;;;;;;1.30;1.20;;;;;;;;;;4974761;28;20054;-70
2024/01/05 08:41:45;;;;;;;4.07;1.52;;;;;;;;;;4976267;28;20089;-69
2024/01/05 08:44:10;;;;;;;1.98;1.50;;;;;;;;;;4977335;28;20129;-67
2024/01/05 08:46:36;;;;;;;1.98;1.58;;;;;;;;;;4975507;28;20157;-68
2024/01/05 08:49:02;;;;;;;1.92;1.33;;;;;;;;;;4977342;28;20077;-68
2024/01/05 08:51:27;;;;;;;1.85;1.60;;;;;;;;;;4974051;28;20042;-68
2024/01/05 08:53:53;;;;;;;2.00;1.40;;;;;;;;;;4976353;28;20127;-68
2024/01/05 08:56:18;;;;;;;1.60;1.45;;;;;;;;;;4976576;28;20046;-68
2024/01/05 08:58:44;;;;;;;1.80;1.20;;;;;;;;;;4975519;28;20042;-69
2024/01/05 09:01:09;;;;;;;2.30;1.33;;;;;;;;;;4959220;28;20059;-69
2024/01/05 09:03:35;;;;;;;2.30;1.10;;;;;;;;;;4975573;28;20046;-68
2024/01/05 09:06:01;;;;;;;1.13;1.02;;;;;;;;;;4974881;28;20054;-68
2024/01/05 09:08:27;;;;;;;3.17;1.30;;;;;;;;;;4957973;28;20461;-68
2024/01/05 09:10:52;;;;;;;0.93;0.85;;;;;;;;;;4976317;28;20038;-68
2024/01/05 09:13:18;;;;;;;1.67;1.20;;;;;;;;;;4976033;28;20046;-69
2024/01/05 09:15:43;;;;;;;1.80;1.27;;;;;;;;;;4975914;28;20107;-68
2024/01/05 09:18:09;;;;;;;3.30;1.58;;;;;;;;;;4977026;28;20534;-69
2024/01/05 09:20:35;;;;;;;2.17;1.80;;;;;;;;;;4975153;28;20078;-69
2024/01/05 09:23:01;;;;;;;3.35;2.03;;;;;;;;;;4977151;28;20034;-69
2024/01/05 09:25:26;;;;;;;5.30;2.03;;;;;;;;;;4977853;28;20526;-68
2024/01/05 09:27:52;;;;;;;2.67;1.83;;;;;;;;;;4976608;28;20133;-70
2024/01/05 09:30:20;;;;;;;3.97;2.25;;;;;;;;;;4973443;28;20042;-71
2024/01/05 09:32:48;;;;;;;3.53;2.00;;;;;;;;;;4982516;28;20104;-70
2024/01/05 09:35:14;;;;;;;5.68;1.98;;;;;;;;;;4979112;28;20058;-70
2024/01/05 09:37:40;;;;;;;2.55;2.15;;;;;;;;;;4975870;28;20038;-70
2024/01/05 09:40:08;;;;;;;2.88;1.83;;;;;;;;;;4977697;28;20050;-70
2024/01/05 09:42:34;;;;;;;4.00;1.48;;;;;;;;;;4975401;28;20134;-70
2024/01/05 09:45:02;;;;;;;3.47;2.00;;;;;;;;;;4978094;28;20294;-70
2024/01/05 09:47:27;;;;;;;3.55;1.95;;;;;;;;;;4976730;28;20050;-70
2024/01/05 09:49:53;;;;;;;3.40;1.98;;;;;;;;;;4977887;28;20056;-70
2024/01/05 09:52:20;;;;;;;6.25;1.48;;;;;;;;;;4975985;28;20800;-69
2024/01/05 09:54:46;;;;;;;3.25;2.30;;;;;;;;;;4978042;28;20133;-70
2024/01/05 09:57:16;;;;;;;3.58;1.90;;;;;;;;;;4976323;28;20141;-70
2024/01/05 09:59:45;;;;;;;2.08;1.70;;;;;;;;;;4976457;28;20069;-70
2024/01/05 10:02:15;;;;;;;6.75;1.67;;;;;;;;;;4976734;28;20164;-69
2024/01/05 10:04:42;;;;;;;3.70;1.75;;;;;;;;;;4976473;28;20070;-69
2024/01/05 10:07:08;;;;;;;2.38;1.83;;;;;;;;;;4977601;28;20057;-69
2024/01/05 10:09:48;;;;;;;2.38;1.85;;;;;;;;;;4976244;28;20050;-69
2024/01/05 10:12:13;;;;;;;2.10;1.40;;;;;;;;;;4975905;28;20193;-62
2024/01/05 10:14:39;;;;;;;3.17;2.03;;;;;;;;;;4974789;28;20054;-70
2024/01/05 10:17:09;;;;;;;3.97;2.50;;;;;;;;;;4977407;28;20148;-70
2024/01/05 10:19:35;;;;;;;7.28;2.33;;;;;;;;;;4975633;28;20142;-70
2024/01/05 10:22:10;;;;;;;3.90;2.20;;;;;;;;;;4977473;28;20137;-70
2024/01/05 10:24:35;;;;;;;2.92;1.80;;;;;;;;;;4976742;28;20047;-69
2024/01/05 10:27:09;;;;;;;2.22;1.65;;;;;;;;;;4977361;28;20419;-70
2024/01/05 10:29:36;;;;;;;2.85;2.10;;;;;;;;;;4975361;28;20706;-69
2024/01/05 10:32:18;;;;;;;2.88;2.10;;;;;;;;;;4976379;28;20053;-68
2024/01/05 10:34:50;;;;;;;3.22;2.10;;;;;;;;;;4975861;28;20535;-69
2024/01/05 10:37:17;;;;;;;4.88;1.60;;;;;;;;;;4975479;28;20050;-70
2024/01/05 10:39:53;;;;;;;3.42;1.77;;;;;;;;;;4980298;28;20050;-70
2024/01/05 10:42:22;;;;;;;2.00;1.60;;;;;;;;;;4981367;28;20050;-70
2024/01/05 10:44:51;;;;;;;4.72;1.75;;;;;;;;;;4983392;28;20054;-69
2024/01/05 10:47:18;;;;;;;1.88;1.52;;;;;;;;;;4984161;28;20046;-69
2024/01/05 10:49:49;;;;;;;2.00;1.70;;;;;;;;;;4984596;28;20042;-70
2024/01/05 10:52:19;;;;;;;2.08;1.50;;;;;;;;;;4982713;28;20042;-69
2024/01/05 10:54:46;;;;;;;2.40;1.80;;;;;;;;;;4980222;28;20161;-69
2024/01/05 10:57:14;;;;;;;3.88;2.30;;;;;;;;;;4981001;28;20053;-69
2024/01/05 10:59:54;;;;;;;2.92;1.77;;;;;;;;;;4978247;28;20141;-70
2024/01/05 11:02:41;;;;;;;2.50;1.60;;;;;;;;;;4959024;28;20407;-70
2024/01/05 11:05:10;;;;;;;3.08;1.77;;;;;;;;;;4978854;28;20046;-69
2024/01/05 11:07:37;;;;;;;1.75;1.33;;;;;;;;;;4977776;28;20061;-70
2024/01/05 11:10:35;;;;;;;1.58;1.35;;;;;;;;;;4977742;28;20046;-70
2024/01/05 11:13:19;;;;;;;1.98;1.58;;;;;;;;;;4978572;28;20546;-69
2024/01/05 11:16:15;;;;;;;1.77;1.65;;;;;;;;;;4982234;28;20047;-69
2024/01/05 11:19:16;;;;;;;2.78;2.10;;;;;;;;;;4981531;28;20185;-69
2024/01/05 11:21:56;;;;;;;2.88;2.30;;;;;;;;;;4982239;28;20129;-69
2024/01/05 11:24:23;;;;;;;3.80;2.25;;;;;;;;;;4983856;28;20058;-69
2024/01/05 11:26:48;;;;;;;3.28;2.35;;;;;;;;;;4981997;28;20932;-70
2024/01/05 11:29:46;;;;;;;4.85;2.28;;;;;;;;;;4974695;28;20050;-70
2024/01/05 11:32:33;;;;;;;5.60;2.72;;;;;;;;;;4981614;28;20057;-70
2024/01/05 11:35:00;;;;;;;5.03;2.15;;;;;;;;;;4994858;28;20577;-69
2024/01/05 11:37:32;;;;;;;4.30;2.75;;;;;;;;;;4972659;28;20042;-70
2024/01/05 11:40:00;;;;;;;;;;;;;;;;;;4980215;28;20168;-70
2024/01/05 11:42:25;;;;;;;5.55;2.25;;;;;;;;;;4978567;28;20417;-69
2024/01/05 11:44:58;;;;;;;2.42;2.03;;;;;;;;;;4978147;28;20539;-69
2024/01/05 11:47:40;;;;;;;1.98;1.77;;;;;;;;;;4975625;28;20053;-69
2024/01/05 11:50:32;;;;;;;4.88;3.47;;;;;;;;;;4978907;28;20038;-69
2024/01/05 11:53:07;;;;;;;3.65;2.58;;;;;;;;;;4978019;28;20616;-70
2024/01/05 11:55:40;;;;;;;4.93;2.45;;;;;;;;;;4977187;28;20042;-71
2024/01/05 11:58:12;;;;;;;3.03;2.30;;;;;;;;;;4980646;28;20052;-71
2024/01/05 12:00:39;;;;;;;;;;;;;;;;;;4980939;28;20483;-71
2024/01/05 12:03:04;;;;;;;4.20;2.60;;;;;;;;;;4979787;28;19936;-70
2024/01/05 12:05:31;;;;;;;4.20;2.50;;;;;;;;;;4977507;28;20038;-70
2024/01/05 12:07:57;;;;;;;5.18;2.63;;;;;;;;;;4978646;28;20046;-71
2024/01/05 12:10:24;;;;;;;3.30;1.80;;;;;;;;;;4978293;28;20042;-70
2024/01/05 12:12:58;;;;;;;2.55;1.90;;;;;;;;;;4978228;28;20496;-71
2024/01/05 12:15:24;;;;;;;2.38;2.00;;;;;;;;;;4977918;28;20049;-70
2024/01/05 12:18:00;;;;;;;3.78;1.77;;;;;;;;;;4978058;28;20089;-70
2024/01/05 12:20:26;;;;;;;3.22;1.70;;;;;;;;;;4978834;28;20089;-70
2024/01/05 12:22:51;;;;;;;2.40;1.80;;;;;;;;;;4979061;28;20133;-70
2024/01/05 12:25:17;;;;;;;3.95;1.80;;;;;;;;;;4977474;28;20104;-70
2024/01/05 12:27:42;;;;;;;5.15;2.22;;;;;;;;;;4978140;28;20046;-70
2024/01/05 12:30:09;;;;;;;5.60;2.28;;;;;;;;;;4978723;28;20462;-70
2024/01/05 12:32:35;;;;;;;3.95;2.00;;;;;;;;;;4979120;28;20050;-70
2024/01/05 12:35:05;;;;;;;3.90;2.40;;;;;;;;;;4979077;28;20046;-71
2024/01/05 12:37:31;;;;;;;4.63;2.78;;;;;;;;;;4975818;28;20069;-70
2024/01/05 12:40:10;;;;;;;2.90;2.08;;;;;;;;;;4978510;28;20637;-70
2024/01/05 12:42:39;;;;;;;3.70;2.20;;;;;;;;;;4977755;28;20720;-71
2024/01/05 12:45:08;;;;;;;3.40;2.40;;;;;;;;;;4979230;28;20045;-71
2024/01/05 12:47:34;;;;;;;7.95;1.90;;;;;;;;;;4972697;28;20047;-72
2024/01/05 12:50:00;;;;;;;2.97;2.30;;;;;;;;;;4977165;28;20093;-70
2024/01/05 12:52:36;;;;;;;3.63;2.20;;;;;;;;;;4978396;28;20931;-71
2024/01/05 12:55:03;;;;;;;4.03;2.58;;;;;;;;;;4974987;28;20128;-70
2024/01/05 12:57:29;;;;;;;5.35;2.92;;;;;;;;;;4974320;28;20787;-70
2024/01/05 13:00:05;;;;;;;3.72;2.35;;;;;;;;;;4974354;28;20088;-70
2024/01/05 13:02:40;;;;;;;5.40;2.92;;;;;;;;;;4975590;28;20080;-71
2024/01/05 13:05:26;;;;;;;7.35;3.42;;;;;;;;;;4974903;28;20717;-70
2024/01/05 13:07:51;;;;;;;5.45;2.70;;;;;;;;;;4974145;28;20606;-70
2024/01/05 13:10:16;;;;;;;4.80;2.90;;;;;;;;;;4976680;28;20050;-70
2024/01/05 13:12:46;;;;;;;4.53;3.17;;;;;;;;;;4975264;28;23741;-70
2024/01/05 13:15:15;;;;;;;7.13;3.50;;;;;;;;;;4990079;28;20080;-69
2024/01/05 13:17:47;;;;;;;5.05;3.25;;;;;;;;;;4974136;28;20054;-69
2024/01/05 13:20:24;;;;;;;7.55;2.95;;;;;;;;;;4974477;28;20931;-69
2024/01/05 13:22:58;;;;;;;5.00;2.83;;;;;;;;;;4973760;28;20125;-71
2024/01/05 13:25:25;;;;;;;8.63;3.50;;;;;;;;;;4975959;28;20542;-70
2024/01/05 13:27:50;;;;;;;4.55;3.22;;;;;;;;;;4974658;28;20046;-70
2024/01/05 13:30:16;;;;;;;4.45;1.88;;;;;;;;;;4976927;28;20053;-69
2024/01/05 13:32:42;;;;;;;9.73;2.63;;;;;;;;;;4975049;28;20157;-70
2024/01/05 13:35:09;;;;;;;5.25;2.65;;;;;;;;;;4975729;28;20050;-70
2024/01/05 13:37:35;;;;;;;5.25;2.55;;;;;;;;;;4973482;28;20030;-71
2024/01/05 13:40:00;;;;;;;4.10;2.00;;;;;;;;;;4975143;28;20149;-70
2024/01/05 13:42:28;;;;;;;3.92;1.42;;;;;;;;;;4972762;28;20155;-70
2024/01/05 13:44:58;;;;;;;2.20;1.13;;;;;;;;;;4974085;28;20492;-70
2024/01/05 13:47:24;;;;;;;2.30;1.73;;;;;;;;;;4973592;28;20050;-70
2024/01/05 13:49:49;;;;;;;3.72;2.03;;;;;;;;;;4974273;28;20048;-69
2024/01/05 13:52:15;;;;;;;3.85;1.45;;;;;;;;;;4976150;28;20050;-70
2024/01/05 13:54:40;;;;;;;3.03;1.17;;;;;;;;;;4973490;28;20042;-70
2024/01/05 13:57:06;;;;;;;2.78;1.27;;;;;;;;;;4975235;28;20042;-70
2024/01/05 13:59:33;;;;;;;3.63;1.30;;;;;;;;;;4973458;28;20515;-70
2024/01/05 14:01:59;;;;;;;0.88;0.88;;;;;;;;;;4974821;28;20057;-70
2024/01/05 14:04:24;;;;;;;1.17;0.95;;;;;;;;;;4974052;28;20046;-69
2024/01/05 14:06:50;;;;;;;3.83;1.30;;;;;;;;;;4968104;28;20050;-69
2024/01/05 14:09:15;;;;;;;4.30;1.17;;;;;;;;;;4970666;28;20048;-69
2024/01/05 14:11:41;;;;;;;2.22;0.95;;;;;;;;;;4972784;28;20046;-69
2024/01/05 14:14:06;;;;;;;2.17;0.98;;;;;;;;;;4972394;28;20050;-69
2024/01/05 14:16:32;;;;;;;1.10;0.80;;;;;;;;;;4973212;28;20047;-70
2024/01/05 14:18:57;;;;;;;4.15;1.02;;;;;;;;;;4974758;28;20050;-70
2024/01/05 14:21:25;;;;;;;1.67;1.20;;;;;;;;;;4973882;28;20716;-70
2024/01/05 14:23:54;;;;;;;1.48;1.02;;;;;;;;;;4971996;28;20046;-69
2024/01/05 14:26:20;;;;;;;4.90;1.35;;;;;;;;;;4972572;28;20062;-69
2024/01/05 14:28:45;;;;;;;3.97;1.30;;;;;;;;;;4973743;28;20046;-70
2024/01/05 14:31:21;;;;;;;1.95;0.90;;;;;;;;;;4975045;28;20423;-69
2024/01/05 14:33:46;;;;;;;1.58;1.05;;;;;;;;;;4972286;28;20057;-69
2024/01/05 14:36:12;;;;;;;1.23;0.90;;;;;;;;;;4972759;28;20047;-70
2024/01/05 14:38:37;;;;;;;1.17;1.08;;;;;;;;;;4973889;28;20042;-70
2024/01/05 14:41:04;;;;;;;1.50;0.90;;;;;;;;;;4973137;28;21242;-69
2024/01/05 14:43:30;;;;;;;2.72;0.82;;;;;;;;;;4973593;28;20061;-69